createdAt,value
2022-09-21T00:00:13.946Z,102121.78
2022-09-21T00:02:40.614Z,102125.56
2022-09-21T00:05:07.904Z,102125.78
2022-09-21T00:07:35.827Z,102130.31
2022-09-21T00:10:02.468Z,102133.00
2022-09-21T00:12:29.098Z,102129.44
2022-09-21T00:14:55.700Z,102132.38
2022-09-21T00:17:22.279Z,102130.63
2022-09-21T00:19:48.872Z,102137.91
2022-09-21T00:22:15.523Z,102136.16
2022-09-21T00:24:43.410Z,102131.00
2022-09-21T00:27:10.029Z,102137.47
2022-09-21T00:29:36.644Z,102132.19
2022-09-21T00:32:03.363Z,102138.53
2022-09-21T00:34:29.926Z,102139.53
2022-09-21T00:36:56.729Z,102145.97
2022-09-21T00:39:23.269Z,102144.38
2022-09-21T00:41:51.191Z,102149.84
2022-09-21T00:44:27.943Z,102145.41
2022-09-21T00:46:57.568Z,102149.19
2022-09-21T00:49:26.610Z,102142.06
2022-09-21T00:51:53.704Z,102138.63
2022-09-21T00:54:25.162Z,102147.69
2022-09-21T00:56:55.401Z,102141.50
2022-09-21T00:59:24.809Z,102144.34
2022-09-21T01:01:54.724Z,102140.88
2022-09-21T01:04:21.639Z,102139.25
2022-09-21T01:06:49.240Z,102145.69
2022-09-21T01:09:17.256Z,102151.22
2022-09-21T01:11:58.425Z,102140.59
2022-09-21T01:14:38.615Z,102140.72
2022-09-21T01:17:12.472Z,102143.53
2022-09-21T01:20:03.178Z,102149.88
2022-09-21T01:22:40.821Z,102149.13
2022-09-21T01:25:19.935Z,102153.66
2022-09-21T01:28:06.844Z,102154.69
2022-09-21T01:30:37.452Z,102156.66
2022-09-21T01:33:10.535Z,102153.16
2022-09-21T01:35:42.586Z,102147.03
2022-09-21T01:38:13.904Z,102148.88
2022-09-21T01:40:45.331Z,102148.00
2022-09-21T01:43:24.705Z,102165.03
2022-09-21T01:45:56.690Z,102158.78
2022-09-21T01:48:25.610Z,102153.47
2022-09-21T01:50:56.784Z,102148.22
2022-09-21T01:53:28.509Z,102155.50
2022-09-21T01:55:58.765Z,102162.84
2022-09-21T01:58:31.457Z,102162.94
2022-09-21T02:00:59.950Z,102165.72
2022-09-21T02:03:32.796Z,102168.41
2022-09-21T02:06:00.876Z,102162.28
2022-09-21T02:08:31.137Z,102158.81
2022-09-21T02:11:00.373Z,102162.50
2022-09-21T02:13:32.817Z,102163.44
2022-09-21T02:16:16.833Z,102166.22
2022-09-21T02:18:52.272Z,102170.00
2022-09-21T02:21:25.505Z,102170.00
2022-09-21T02:24:03.344Z,102170.97
2022-09-21T02:26:35.562Z,102169.22
2022-09-21T02:29:12.637Z,102170.19
2022-09-21T02:31:48.595Z,102172.03
2022-09-21T02:34:21.745Z,102179.25
2022-09-21T02:36:51.734Z,102181.16
2022-09-21T02:39:21.809Z,102184.81
2022-09-21T02:41:58.907Z,102182.22
2022-09-21T02:44:32.835Z,102179.63
2022-09-21T02:47:06.596Z,102182.41
2022-09-21T02:49:38.660Z,102180.78
2022-09-21T02:52:11.448Z,102185.31
2022-09-21T02:54:40.738Z,102183.56
2022-09-21T02:57:08.773Z,102180.13
2022-09-21T02:59:35.593Z,102177.53
2022-09-21T03:02:03.720Z,102181.16
2022-09-21T03:04:31.478Z,102186.66
2022-09-21T03:06:58.083Z,102184.06
2022-09-21T03:09:24.809Z,102194.91
2022-09-21T03:11:51.758Z,102189.75
2022-09-21T03:14:18.308Z,102193.38
2022-09-21T03:16:45.308Z,102194.38
2022-09-21T03:19:13.301Z,102199.84
2022-09-21T03:21:44.358Z,102198.09
2022-09-21T03:24:11.416Z,102199.94
2022-09-21T03:26:38.119Z,102200.03
2022-09-21T03:29:05.032Z,102200.03
2022-09-21T03:31:31.912Z,102200.13
2022-09-21T03:33:58.559Z,102202.91
2022-09-21T03:36:26.574Z,102196.78
2022-09-21T03:38:53.483Z,102203.19
2022-09-21T03:41:20.716Z,102204.25
2022-09-21T03:43:47.337Z,102206.16
2022-09-21T03:46:14.146Z,102208.84
2022-09-21T03:48:40.745Z,102208.09
2022-09-21T03:51:07.423Z,102202.72
2022-09-21T03:53:35.410Z,102206.38
2022-09-21T03:56:02.135Z,102204.63
2022-09-21T03:58:28.695Z,102211.09
2022-09-21T04:01:01.231Z,102219.16
2022-09-21T04:03:27.921Z,102213.84
2022-09-21T04:05:54.497Z,102211.16
2022-09-21T04:08:21.297Z,102214.06
2022-09-21T04:10:49.282Z,102217.63
2022-09-21T04:13:15.784Z,102213.28
2022-09-21T04:15:42.410Z,102214.25
2022-09-21T04:18:09.041Z,102214.25
2022-09-21T04:20:35.709Z,102218.84
2022-09-21T04:23:02.291Z,102225.19
2022-09-21T04:25:28.814Z,102225.19
2022-09-21T04:27:56.803Z,102224.31
2022-09-21T04:30:23.334Z,102223.56
2022-09-21T04:32:49.953Z,102220.00
2022-09-21T04:35:16.637Z,102220.19
2022-09-21T04:37:43.191Z,102223.84
2022-09-21T04:40:10.038Z,102222.09
2022-09-21T04:42:36.706Z,102216.84
2022-09-21T04:45:05.778Z,102224.91
2022-09-21T04:47:32.383Z,102216.06
2022-09-21T04:49:58.978Z,102216.13
2022-09-21T04:52:25.662Z,102224.31
2022-09-21T04:54:52.294Z,102223.44
2022-09-21T04:57:18.929Z,102232.47
2022-09-21T04:59:45.527Z,102227.16
2022-09-21T05:02:13.524Z,102230.72
2022-09-21T05:04:40.089Z,102228.03
2022-09-21T05:07:06.798Z,102233.41
2022-09-21T05:09:33.385Z,102228.03
2022-09-21T05:12:00.025Z,102228.03
2022-09-21T05:14:26.708Z,102236.03
2022-09-21T05:16:53.290Z,102242.28
2022-09-21T05:19:21.299Z,102238.72
2022-09-21T05:21:47.838Z,102247.47
2022-09-21T05:24:14.526Z,102251.81
2022-09-21T05:26:41.178Z,102257.94
2022-09-21T05:29:09.035Z,102257.84
2022-09-21T05:31:43.724Z,102266.69
2022-09-21T05:34:27.200Z,102257.56
2022-09-21T05:37:01.285Z,102260.94
2022-09-21T05:39:28.546Z,102267.84
2022-09-21T05:41:55.992Z,102266.72
2022-09-21T05:44:23.219Z,102273.63
2022-09-21T05:46:57.126Z,102270.59
2022-09-21T05:49:36.506Z,102275.56
2022-09-21T05:52:13.567Z,102269.81
2022-09-21T05:54:52.410Z,102279.13
2022-09-21T05:57:30.820Z,102274.06
2022-09-21T06:00:07.727Z,102284.25
2022-09-21T06:02:49.805Z,102284.50
2022-09-21T06:05:18.783Z,102282.22
2022-09-21T06:07:45.399Z,102277.38
2022-09-21T06:10:13.608Z,102276.03
2022-09-21T06:12:40.620Z,102274.75
2022-09-21T06:15:10.924Z,102280.63
2022-09-21T06:17:37.697Z,102279.38
2022-09-21T06:20:04.974Z,102279.81
2022-09-21T06:22:32.978Z,102284.81
2022-09-21T06:24:59.683Z,102274.69
2022-09-21T06:27:28.213Z,102283.34
2022-09-21T06:29:55.020Z,102281.09
2022-09-21T06:32:21.580Z,102279.78
2022-09-21T06:34:48.192Z,102285.63
2022-09-21T06:37:14.733Z,102288.78
2022-09-21T06:39:42.760Z,102287.47
2022-09-21T06:42:09.366Z,102291.53
2022-09-21T06:44:36.004Z,102288.50
2022-09-21T06:47:02.613Z,102296.28
2022-09-21T06:49:29.188Z,102296.06
2022-09-21T06:51:56.127Z,102292.19
2022-09-21T06:54:22.704Z,102298.06
2022-09-21T06:56:50.685Z,102296.97
2022-09-21T06:59:17.209Z,102297.53
2022-09-21T07:01:43.899Z,102297.09
2022-09-21T07:04:10.685Z,102299.38
2022-09-21T07:06:37.534Z,102301.75
2022-09-21T07:11:52.425Z,102311.69
2022-09-21T07:14:18.950Z,102305.13
2022-09-21T07:16:45.578Z,102310.09
2022-09-21T07:19:12.319Z,102308.69
2022-09-21T07:21:39.131Z,102312.88
2022-09-21T07:24:10.971Z,102312.47
2022-09-21T07:26:38.514Z,102316.59
2022-09-21T07:29:07.019Z,102312.47
2022-09-21T07:31:33.796Z,102309.19
2022-09-21T07:34:00.429Z,102307.59
2022-09-21T07:36:27.155Z,102310.34
2022-09-21T07:38:54.039Z,102314.03
2022-09-21T07:41:21.208Z,102310.41
2022-09-21T07:43:47.790Z,102313.97
2022-09-21T07:46:16.051Z,102308.53
2022-09-21T07:48:42.893Z,102313.16
2022-09-21T07:51:11.518Z,102314.28
2022-09-21T07:53:40.213Z,102312.75
2022-09-21T07:56:09.417Z,102313.13
2022-09-21T07:58:37.054Z,102309.09
2022-09-21T08:01:05.556Z,102315.03
2022-09-21T08:03:33.592Z,102317.50
2022-09-21T08:06:00.134Z,102316.28
2022-09-21T08:08:26.789Z,102315.81
2022-09-21T08:10:53.379Z,102317.91
2022-09-21T08:13:19.943Z,102311.78
2022-09-21T08:15:49.859Z,102318.97
2022-09-21T08:18:16.767Z,102318.97
2022-09-21T08:20:44.793Z,102315.44
2022-09-21T08:23:11.379Z,102320.72
2022-09-21T08:25:38.000Z,102308.28
2022-09-21T08:28:09.441Z,102317.47
2022-09-21T08:30:36.945Z,102315.72
2022-09-21T08:33:03.546Z,102315.97
2022-09-21T08:35:30.141Z,102316.94
2022-09-21T08:37:58.114Z,102314.06
2022-09-21T08:40:24.954Z,102309.34
2022-09-21T08:42:59.075Z,102313.78
2022-09-21T08:45:32.791Z,102310.06
2022-09-21T08:48:03.879Z,102305.69
2022-09-21T08:50:37.481Z,102307.88
2022-09-21T08:53:12.295Z,102308.63
2022-09-21T08:55:38.974Z,102301.19
2022-09-21T08:58:21.697Z,102307.09
2022-09-21T09:00:52.668Z,102314.75
2022-09-21T09:03:37.840Z,102309.63
2022-09-21T09:06:15.140Z,102305.53
2022-09-21T09:09:14.163Z,102305.63
2022-09-21T09:11:53.335Z,102306.44
2022-09-21T09:14:41.306Z,102306.50
2022-09-21T09:17:27.817Z,102307.28
2022-09-21T09:19:59.934Z,102308.94
2022-09-21T09:22:30.518Z,102300.81
2022-09-21T09:25:03.251Z,102304.75
2022-09-21T09:27:35.270Z,102302.06
2022-09-21T09:30:04.891Z,102304.81
2022-09-21T09:32:38.586Z,102310.28
2022-09-21T09:35:16.162Z,102303.88
2022-09-21T09:37:45.312Z,102310.81
2022-09-21T09:40:14.931Z,102310.25
2022-09-21T09:43:04.704Z,102314.19
2022-09-21T09:45:51.115Z,102313.34
2022-09-21T09:48:39.222Z,102311.06
2022-09-21T09:51:11.260Z,102305.00
2022-09-21T09:53:38.059Z,102304.16
2022-09-21T09:56:09.607Z,102306.47
2022-09-21T09:58:41.642Z,102308.88
2022-09-21T10:01:08.465Z,102302.00
2022-09-21T10:03:35.349Z,102309.59
2022-09-21T10:06:02.142Z,102308.44
2022-09-21T10:08:41.541Z,102316.75
2022-09-21T10:11:11.012Z,102300.69
2022-09-21T10:13:39.946Z,102303.56
2022-09-21T10:16:12.839Z,102296.97
2022-09-21T10:18:45.051Z,102300.25
2022-09-21T10:21:18.467Z,102298.81
2022-09-21T10:23:48.105Z,102294.34
2022-09-21T10:26:18.141Z,102293.16
2022-09-21T10:28:57.336Z,102291.47
2022-09-21T10:31:26.086Z,102282.72
2022-09-21T10:33:55.337Z,102288.22
2022-09-21T10:36:27.428Z,102285.91
2022-09-21T10:38:54.083Z,102287.91
2022-09-21T10:41:22.995Z,102288.22
2022-09-21T10:43:50.390Z,102286.41
2022-09-21T10:46:17.802Z,102287.03
2022-09-21T10:48:46.297Z,102279.44
2022-09-21T10:51:27.309Z,102282.59
2022-09-21T10:53:54.478Z,102276.44
2022-09-21T10:56:23.151Z,102268.97
2022-09-21T10:59:20.661Z,102271.66
2022-09-21T11:01:49.429Z,102266.03
2022-09-21T11:04:22.165Z,102263.72
2022-09-21T11:06:52.697Z,102261.09
2022-09-21T11:09:24.247Z,102260.38
2022-09-21T11:11:59.291Z,102262.50
2022-09-21T11:14:41.562Z,102258.41
2022-09-21T11:17:17.223Z,102260.31
2022-09-21T11:19:50.069Z,102257.72
2022-09-21T11:22:25.954Z,102255.13
2022-09-21T11:24:59.763Z,102254.47
2022-09-21T11:27:31.553Z,102261.78
2022-09-21T11:30:02.022Z,102263.75
2022-09-21T11:32:56.136Z,102265.72
2022-09-21T11:35:50.655Z,102269.66
2022-09-21T11:38:34.658Z,102260.44
2022-09-21T11:41:26.981Z,102257.03
2022-09-21T11:44:15.422Z,102261.59
2022-09-21T11:46:52.014Z,102249.25
2022-09-21T11:49:40.291Z,102257.38
2022-09-21T11:52:20.695Z,102252.50
2022-09-21T11:55:04.822Z,102250.13
2022-09-21T11:57:42.131Z,102249.75
2022-09-21T12:00:15.955Z,102253.59
2022-09-21T12:03:15.335Z,102253.44
2022-09-21T12:05:51.499Z,102247.00
2022-09-21T12:08:42.157Z,102243.34
2022-09-21T12:11:20.793Z,102249.63
2022-09-21T12:13:54.704Z,102246.69
2022-09-21T12:16:35.270Z,102244.44
2022-09-21T12:19:09.472Z,102241.47
2022-09-21T12:21:40.505Z,102248.28
2022-09-21T12:24:15.554Z,102238.34
2022-09-21T12:26:46.898Z,102244.84
2022-09-21T12:29:18.416Z,102237.13
2022-09-21T12:31:58.823Z,102239.38
2022-09-21T12:34:31.787Z,102228.88
2022-09-21T12:37:08.591Z,102221.47
2022-09-21T12:39:43.325Z,102225.38
2022-09-21T12:42:22.294Z,102225.84
2022-09-21T12:44:55.165Z,102221.13
2022-09-21T12:47:29.642Z,102224.63
2022-09-21T12:50:05.453Z,102225.00
2022-09-21T12:52:32.566Z,102214.91
2022-09-21T12:55:07.657Z,102219.94
2022-09-21T12:58:10.808Z,102210.50
2022-09-21T13:00:40.913Z,102200.38
2022-09-21T13:03:18.356Z,102214.97
2022-09-21T13:05:59.503Z,102204.34
2022-09-21T13:08:32.512Z,102204.16
2022-09-21T13:11:01.657Z,102213.63
2022-09-21T13:13:32.379Z,102216.16
2022-09-21T13:16:00.761Z,102204.47
2022-09-21T13:18:35.787Z,102202.38
2022-09-21T13:21:16.290Z,102207.34
2022-09-21T13:23:43.412Z,102212.97
2022-09-21T13:26:13.387Z,102208.84
2022-09-21T13:29:05.557Z,102206.44
2022-09-21T13:31:52.854Z,102202.34
2022-09-21T13:34:27.049Z,102202.84
2022-09-21T13:37:33.566Z,102207.50
2022-09-21T13:40:39.723Z,102206.63
2022-09-21T13:43:24.476Z,102208.84
2022-09-21T13:45:56.623Z,102202.81
2022-09-21T13:48:27.045Z,102198.84
2022-09-21T13:50:59.266Z,102201.22
2022-09-21T13:53:33.015Z,102194.56
2022-09-21T13:56:06.052Z,102191.28
2022-09-21T13:58:34.964Z,102191.59
2022-09-21T14:01:05.155Z,102187.84
2022-09-21T14:03:35.881Z,102184.28
2022-09-21T14:06:08.094Z,102187.25
2022-09-21T14:08:39.003Z,102180.09
2022-09-21T14:11:10.205Z,102171.22
2022-09-21T14:13:39.157Z,102182.19
2022-09-21T14:16:43.466Z,102175.03
2022-09-21T14:19:43.589Z,102172.81
2022-09-21T14:22:34.028Z,102163.72
2022-09-21T14:25:22.165Z,102162.88
2022-09-21T14:27:51.901Z,102168.00
2022-09-21T14:30:21.916Z,102161.81
2022-09-21T14:32:53.628Z,102164.72
2022-09-21T14:35:22.921Z,102166.25
2022-09-21T14:37:54.730Z,102161.09
2022-09-21T14:40:23.706Z,102156.13
2022-09-21T14:42:51.173Z,102158.53
2022-09-21T14:45:20.258Z,102158.00
2022-09-21T14:48:06.593Z,102154.56
2022-09-21T14:50:35.479Z,102148.59
2022-09-21T14:53:31.122Z,102149.97
2022-09-21T14:56:20.825Z,102150.81
2022-09-21T14:59:00.428Z,102142.41
2022-09-21T15:01:38.209Z,102145.53
2022-09-21T15:04:54.607Z,102150.31
2022-09-21T15:07:34.024Z,102152.75
2022-09-21T15:10:18.755Z,102146.94
2022-09-21T15:12:54.993Z,102151.38
2022-09-21T15:15:35.748Z,102153.81
2022-09-21T15:18:02.714Z,102145.06
2022-09-21T15:20:31.192Z,102138.69
2022-09-21T15:22:59.999Z,102140.56
2022-09-21T15:25:31.472Z,102145.88
2022-09-21T15:27:58.366Z,102138.50
2022-09-21T15:30:27.211Z,102144.84
2022-09-21T15:32:56.169Z,102138.13
2022-09-21T15:35:25.838Z,102140.88
2022-09-21T15:37:52.524Z,102141.88
2022-09-21T15:40:22.403Z,102148.91
2022-09-21T15:43:02.236Z,102137.94
2022-09-21T15:45:31.504Z,102134.13
2022-09-21T15:47:58.383Z,102142.00
2022-09-21T15:50:28.158Z,102139.94
2022-09-21T15:52:59.030Z,102141.09
2022-09-21T15:55:26.225Z,102148.75
2022-09-21T15:57:54.906Z,102146.72
2022-09-21T16:00:26.634Z,102142.91
2022-09-21T16:03:00.199Z,102142.88
2022-09-21T16:05:27.570Z,102147.44
2022-09-21T16:08:06.132Z,102155.13
2022-09-21T16:10:38.975Z,102152.69
2022-09-21T16:13:12.001Z,102155.25
2022-09-21T16:15:40.030Z,102155.03
2022-09-21T16:18:06.697Z,102159.28
2022-09-21T16:20:43.356Z,102161.78
2022-09-21T16:23:16.076Z,102156.78
2022-09-21T16:25:43.347Z,102157.47
2022-09-21T16:28:34.811Z,102160.66
2022-09-21T16:31:29.555Z,102160.97
2022-09-21T16:33:58.814Z,102159.22
2022-09-21T16:36:42.124Z,102164.31
2022-09-21T16:39:14.943Z,102166.63
2022-09-21T16:41:49.424Z,102169.97
2022-09-21T16:44:18.413Z,102164.13
2022-09-21T16:46:47.382Z,102167.50
2022-09-21T16:49:16.608Z,102170.84
2022-09-21T16:51:43.165Z,102175.22
2022-09-21T16:54:09.647Z,102165.97
2022-09-21T16:56:36.300Z,102166.72
2022-09-21T16:59:11.120Z,102173.81
2022-09-21T17:01:37.920Z,102167.41
2022-09-21T17:04:05.873Z,102171.94
2022-09-21T17:06:32.462Z,102173.53
2022-09-21T17:09:20.628Z,102179.06
2022-09-21T17:11:48.536Z,102173.66
2022-09-21T17:14:15.441Z,102171.84
2022-09-21T17:16:45.305Z,102177.16
2022-09-21T17:19:13.568Z,102181.81
2022-09-21T17:21:40.345Z,102181.84
2022-09-21T17:24:07.029Z,102180.16
2022-09-21T17:26:34.208Z,102183.91
2022-09-21T17:29:01.172Z,102180.38
2022-09-21T17:31:27.985Z,102182.25
2022-09-21T17:33:54.848Z,102181.41
2022-09-21T17:36:23.197Z,102181.59
2022-09-21T17:38:49.978Z,102189.75
2022-09-21T17:41:24.353Z,102181.75
2022-09-21T17:43:59.783Z,102190.88
2022-09-21T17:46:35.393Z,102191.72
2022-09-21T17:49:02.639Z,102192.59
2022-09-21T17:51:31.466Z,102188.97
2022-09-21T17:53:58.579Z,102199.00
2022-09-21T17:56:36.991Z,102191.69
2022-09-21T17:59:05.887Z,102197.97
2022-09-21T18:01:35.006Z,102195.94
2022-09-21T18:04:02.195Z,102198.50
2022-09-21T18:06:30.992Z,102199.16
2022-09-21T18:08:58.263Z,102209.88
2022-09-21T18:11:40.547Z,102212.53
2022-09-21T18:14:16.453Z,102207.78
2022-09-21T18:16:59.307Z,102210.44
2022-09-21T18:19:40.293Z,102216.53
2022-09-21T18:22:16.140Z,102216.22
2022-09-21T18:24:43.667Z,102223.31
2022-09-21T18:27:11.356Z,102219.28
2022-09-21T18:29:40.721Z,102218.94
2022-09-21T18:32:23.776Z,102217.75
2022-09-21T18:35:08.141Z,102211.13
2022-09-21T18:37:43.634Z,102216.22
2022-09-21T18:40:17.891Z,102217.75
2022-09-21T18:42:51.716Z,102224.66
2022-09-21T18:45:24.083Z,102225.19
2022-09-21T18:48:05.431Z,102216.84
2022-09-21T18:50:38.274Z,102218.34
2022-09-21T18:53:14.968Z,102222.56
2022-09-21T18:55:43.363Z,102223.06
2022-09-21T18:58:10.860Z,102230.88
2022-09-21T19:00:38.030Z,102227.69
2022-09-21T19:03:18.147Z,102230.75
2022-09-21T19:06:10.736Z,102227.72
2022-09-21T19:08:48.685Z,102230.91
2022-09-21T19:11:21.643Z,102232.28
2022-09-21T19:13:59.496Z,102235.31
2022-09-21T19:16:32.541Z,102231.28
2022-09-21T19:19:11.064Z,102232.63
2022-09-21T19:21:44.334Z,102236.59
2022-09-21T19:24:19.701Z,102238.81
2022-09-21T19:27:03.584Z,102240.28
2022-09-21T19:29:38.528Z,102241.50
2022-09-21T19:32:13.475Z,102242.88
2022-09-21T19:34:40.812Z,102237.81
2022-09-21T19:37:08.061Z,102240.91
2022-09-21T19:39:37.274Z,102243.00
2022-09-21T19:42:19.053Z,102245.19
2022-09-21T19:44:57.465Z,102243.72
2022-09-21T19:47:30.105Z,102241.38
2022-09-21T19:50:05.834Z,102245.31
2022-09-21T19:52:35.368Z,102244.91
2022-09-21T19:55:06.399Z,102242.56
2022-09-21T19:57:34.164Z,102243.78
2022-09-21T20:00:02.062Z,102249.56
2022-09-21T20:02:33.422Z,102251.75
2022-09-21T20:05:06.224Z,102249.41
2022-09-21T20:07:40.796Z,102259.59
2022-09-21T20:10:25.189Z,102258.13
2022-09-21T20:13:01.526Z,102255.75
2022-09-21T20:15:34.069Z,102260.56
2022-09-21T20:18:06.975Z,102255.38
2022-09-21T20:20:33.904Z,102255.72
2022-09-21T20:23:01.006Z,102256.81
2022-09-21T20:25:32.953Z,102258.91
2022-09-21T20:27:59.964Z,102260.00
2022-09-21T20:30:29.625Z,102248.56
2022-09-21T20:32:58.981Z,102260.44
2022-09-21T20:35:27.759Z,102256.00
2022-09-21T20:37:57.536Z,102259.81
2022-09-21T20:40:30.031Z,102250.22
2022-09-21T20:42:56.691Z,102256.72
2022-09-21T20:45:23.331Z,102256.94
2022-09-21T20:47:50.593Z,102264.31
2022-09-21T20:50:17.692Z,102262.84
2022-09-21T20:52:44.326Z,102258.56
2022-09-21T20:55:13.636Z,102254.38
2022-09-21T20:57:41.550Z,102248.22
2022-09-21T21:00:10.149Z,102253.75
2022-09-21T21:02:36.955Z,102254.94
2022-09-21T21:05:06.099Z,102258.63
2022-09-21T21:07:32.691Z,102252.59
2022-09-21T21:09:59.340Z,102256.38
2022-09-21T21:12:26.092Z,102252.06
2022-09-21T21:14:54.085Z,102259.44
2022-09-21T21:17:20.756Z,102255.22
2022-09-21T21:19:47.412Z,102258.13
2022-09-21T21:22:14.453Z,102268.22
2022-09-21T21:24:41.170Z,102265.75
2022-09-21T21:27:10.635Z,102259.66
2022-09-21T21:29:37.301Z,102271.47
2022-09-21T21:32:05.633Z,102269.84
2022-09-21T21:34:32.211Z,102268.09
2022-09-21T21:36:58.853Z,102271.81
2022-09-21T21:39:25.404Z,102281.84
2022-09-21T21:41:51.987Z,102270.19
2022-09-21T21:44:18.540Z,102271.91
2022-09-21T21:46:45.089Z,102272.78
2022-09-21T21:49:13.439Z,102272.78
2022-09-21T21:51:40.088Z,102270.06
2022-09-21T21:54:07.162Z,102276.34
2022-09-21T21:56:34.089Z,102272.69
2022-09-21T21:59:00.651Z,102276.22
2022-09-21T22:01:29.213Z,102265.41
2022-09-21T22:03:57.359Z,102263.72
2022-09-21T22:06:26.473Z,102269.97
2022-09-21T22:08:54.601Z,102264.56
2022-09-21T22:11:21.966Z,102266.41
2022-09-21T22:13:48.867Z,102260.00
2022-09-21T22:16:17.393Z,102252.66
2022-09-21T22:18:44.663Z,102258.94
2022-09-21T22:21:14.947Z,102260.66
2022-09-21T22:23:43.674Z,102257.84
2022-09-21T22:26:13.132Z,102260.44
2022-09-21T22:28:41.920Z,102263.03
2022-09-21T22:31:10.080Z,102259.34
2022-09-21T22:33:37.281Z,102257.41
2022-09-21T22:36:05.620Z,102259.13
2022-09-21T22:38:32.855Z,102258.13
2022-09-21T22:41:05.183Z,102254.59
2022-09-21T22:43:32.538Z,102270.69
2022-09-21T22:45:59.233Z,102265.16
2022-09-21T22:48:26.234Z,102265.16
2022-09-21T22:50:53.058Z,102266.03
2022-09-21T22:53:19.621Z,102265.06
2022-09-21T22:55:46.249Z,102270.47
2022-09-21T22:58:14.603Z,102273.28
2022-09-21T23:00:41.263Z,102273.38
2022-09-21T23:03:08.272Z,102276.09
2022-09-21T23:05:35.018Z,102255.44
2022-09-21T23:08:01.942Z,102262.69
2022-09-21T23:10:28.632Z,102260.97
2022-09-21T23:12:55.252Z,102254.69
2022-09-21T23:15:23.260Z,102261.06
2022-09-21T23:17:49.916Z,102254.94
2022-09-21T23:20:16.663Z,102254.16
2022-09-21T23:22:43.179Z,102257.09
2022-09-21T23:25:10.013Z,102253.63
2022-09-21T23:27:36.584Z,102254.72
2022-09-21T23:30:03.582Z,102250.41
2022-09-21T23:32:31.596Z,102260.56
2022-09-21T23:34:58.136Z,102264.38
2022-09-21T23:37:24.667Z,102259.19
2022-09-21T23:39:51.209Z,102254.97
2022-09-21T23:42:17.782Z,102256.16
2022-09-21T23:44:44.311Z,102254.66
2022-09-21T23:47:10.917Z,102262.03
2022-09-21T23:49:39.305Z,102253.16
2022-09-21T23:52:05.865Z,102255.97
2022-09-21T23:54:32.483Z,102257.16
2022-09-21T23:56:59.045Z,102258.22
2022-09-21T23:59:25.581Z,102259.44
